sensor_id;sensor_type;location;lat;lon;timestamp;P1;durP1;ratioP1;P2;durP2;ratioP2
43809;SDS011;29440;48.208;11.162;2022-10-18T00:00:41;4.25;;;2.42;;
43809;SDS011;29440;48.208;11.162;2022-10-18T00:03:06;3.78;;;2.40;;
43809;SDS011;29440;48.208;11.162;2022-10-18T00:05:32;4.25;;;2.78;;
43809;SDS011;29440;48.208;11.162;2022-10-18T00:07:57;4.30;;;2.58;;
43809;SDS011;29440;48.208;11.162;2022-10-18T00:10:23;5.05;;;2.17;;
43809;SDS011;29440;48.208;11.162;2022-10-18T00:12:49;3.70;;;2.60;;
43809;SDS011;29440;48.208;11.162;2022-10-18T00:15:15;5.20;;;2.95;;
43809;SDS011;29440;48.208;11.162;2022-10-18T00:17:41;5.78;;;3.03;;
43809;SDS011;29440;48.208;11.162;2022-10-18T00:20:07;5.55;;;2.60;;
43809;SDS011;29440;48.208;11.162;2022-10-18T00:22:34;7.50;;;2.55;;
43809;SDS011;29440;48.208;11.162;2022-10-18T00:25:02;5.13;;;2.58;;
43809;SDS011;29440;48.208;11.162;2022-10-18T00:27:28;2.92;;;2.13;;
43809;SDS011;29440;48.208;11.162;2022-10-18T00:29:54;4.60;;;3.28;;
43809;SDS011;29440;48.208;11.162;2022-10-18T00:32:19;8.88;;;3.03;;
43809;SDS011;29440;48.208;11.162;2022-10-18T00:34:45;6.25;;;3.03;;
43809;SDS011;29440;48.208;11.162;2022-10-18T00:37:10;3.58;;;2.83;;
43809;SDS011;29440;48.208;11.162;2022-10-18T00:39:36;5.03;;;2.30;;
43809;SDS011;29440;48.208;11.162;2022-10-18T00:42:01;6.43;;;2.85;;
43809;SDS011;29440;48.208;11.162;2022-10-18T00:47:02;4.32;;;2.80;;
43809;SDS011;29440;48.208;11.162;2022-10-18T00:49:36;4.68;;;2.63;;
43809;SDS011;29440;48.208;11.162;2022-10-18T00:52:10;9.02;;;3.00;;
43809;SDS011;29440;48.208;11.162;2022-10-18T00:54:39;2.70;;;2.08;;
43809;SDS011;29440;48.208;11.162;2022-10-18T00:57:07;4.63;;;2.40;;
43809;SDS011;29440;48.208;11.162;2022-10-18T00:59:33;7.30;;;2.17;;
43809;SDS011;29440;48.208;11.162;2022-10-18T01:02:00;4.35;;;2.47;;
43809;SDS011;29440;48.208;11.162;2022-10-18T01:04:27;5.78;;;2.63;;
43809;SDS011;29440;48.208;11.162;2022-10-18T01:12:46;10.50;;;3.03;;
43809;SDS011;29440;48.208;11.162;2022-10-18T01:15:41;3.45;;;2.50;;
43809;SDS011;29440;48.208;11.162;2022-10-18T01:21:00;5.43;;;2.70;;
43809;SDS011;29440;48.208;11.162;2022-10-18T01:29:36;4.15;;;2.50;;
43809;SDS011;29440;48.208;11.162;2022-10-18T01:32:31;4.22;;;2.60;;
43809;SDS011;29440;48.208;11.162;2022-10-18T01:35:30;6.47;;;3.67;;
43809;SDS011;29440;48.208;11.162;2022-10-18T01:38:04;5.80;;;2.75;;
43809;SDS011;29440;48.208;11.162;2022-10-18T01:40:35;4.18;;;2.90;;
43809;SDS011;29440;48.208;11.162;2022-10-18T01:43:02;4.50;;;2.70;;
43809;SDS011;29440;48.208;11.162;2022-10-18T01:45:29;4.75;;;2.60;;
43809;SDS011;29440;48.208;11.162;2022-10-18T01:47:56;5.20;;;2.90;;
43809;SDS011;29440;48.208;11.162;2022-10-18T01:50:30;4.20;;;2.40;;
43809;SDS011;29440;48.208;11.162;2022-10-18T01:52:57;5.28;;;2.40;;
43809;SDS011;29440;48.208;11.162;2022-10-18T01:55:30;4.70;;;2.65;;
43809;SDS011;29440;48.208;11.162;2022-10-18T01:58:20;8.80;;;2.42;;
43809;SDS011;29440;48.208;11.162;2022-10-18T02:01:07;6.15;;;2.72;;
43809;SDS011;29440;48.208;11.162;2022-10-18T02:03:42;3.65;;;2.42;;
43809;SDS011;29440;48.208;11.162;2022-10-18T02:06:16;6.65;;;2.88;;
43809;SDS011;29440;48.208;11.162;2022-10-18T02:11:40;3.75;;;2.35;;
43809;SDS011;29440;48.208;11.162;2022-10-18T02:14:10;3.42;;;2.60;;
43809;SDS011;29440;48.208;11.162;2022-10-18T02:16:39;5.68;;;2.20;;
43809;SDS011;29440;48.208;11.162;2022-10-18T02:21:55;3.80;;;2.17;;
43809;SDS011;29440;48.208;11.162;2022-10-18T02:24:23;3.47;;;2.08;;
43809;SDS011;29440;48.208;11.162;2022-10-18T02:26:54;3.88;;;2.20;;
43809;SDS011;29440;48.208;11.162;2022-10-18T02:29:19;4.15;;;2.10;;
43809;SDS011;29440;48.208;11.162;2022-10-18T02:31:47;6.43;;;2.20;;
43809;SDS011;29440;48.208;11.162;2022-10-18T02:34:26;7.03;;;3.38;;
43809;SDS011;29440;48.208;11.162;2022-10-18T02:36:59;11.70;;;2.55;;
43809;SDS011;29440;48.208;11.162;2022-10-18T02:39:27;5.63;;;2.22;;
43809;SDS011;29440;48.208;11.162;2022-10-18T02:41:55;3.50;;;2.40;;
43809;SDS011;29440;48.208;11.162;2022-10-18T02:44:22;3.55;;;2.35;;
43809;SDS011;29440;48.208;11.162;2022-10-18T02:46:48;4.60;;;2.45;;
43809;SDS011;29440;48.208;11.162;2022-10-18T02:49:14;4.45;;;2.50;;
43809;SDS011;29440;48.208;11.162;2022-10-18T02:51:39;9.88;;;2.50;;
43809;SDS011;29440;48.208;11.162;2022-10-18T02:54:05;8.50;;;3.92;;
43809;SDS011;29440;48.208;11.162;2022-10-18T02:56:32;6.80;;;2.70;;
43809;SDS011;29440;48.208;11.162;2022-10-18T02:58:58;5.28;;;2.22;;
43809;SDS011;29440;48.208;11.162;2022-10-18T03:01:24;4.30;;;2.15;;
43809;SDS011;29440;48.208;11.162;2022-10-18T03:03:49;4.97;;;2.40;;
43809;SDS011;29440;48.208;11.162;2022-10-18T03:06:15;6.05;;;2.30;;
43809;SDS011;29440;48.208;11.162;2022-10-18T03:08:41;3.35;;;2.42;;
43809;SDS011;29440;48.208;11.162;2022-10-18T03:11:06;5.35;;;2.55;;
43809;SDS011;29440;48.208;11.162;2022-10-18T03:13:32;3.67;;;2.40;;
43809;SDS011;29440;48.208;11.162;2022-10-18T03:16:00;8.65;;;2.33;;
43809;SDS011;29440;48.208;11.162;2022-10-18T03:18:26;6.45;;;2.35;;
43809;SDS011;29440;48.208;11.162;2022-10-18T03:20:52;2.63;;;1.90;;
43809;SDS011;29440;48.208;11.162;2022-10-18T03:23:17;2.65;;;1.70;;
43809;SDS011;29440;48.208;11.162;2022-10-18T03:25:43;3.85;;;1.88;;
43809;SDS011;29440;48.208;11.162;2022-10-18T03:28:09;5.22;;;2.35;;
43809;SDS011;29440;48.208;11.162;2022-10-18T03:30:34;6.10;;;2.50;;
43809;SDS011;29440;48.208;11.162;2022-10-18T03:33:00;3.90;;;2.08;;
43809;SDS011;29440;48.208;11.162;2022-10-18T03:35:25;5.10;;;2.00;;
43809;SDS011;29440;48.208;11.162;2022-10-18T03:37:51;3.63;;;2.10;;
43809;SDS011;29440;48.208;11.162;2022-10-18T03:40:17;4.40;;;2.22;;
43809;SDS011;29440;48.208;11.162;2022-10-18T03:42:42;3.47;;;2.15;;
43809;SDS011;29440;48.208;11.162;2022-10-18T03:45:08;5.30;;;2.58;;
43809;SDS011;29440;48.208;11.162;2022-10-18T03:47:34;4.88;;;3.08;;
43809;SDS011;29440;48.208;11.162;2022-10-18T03:49:59;8.50;;;2.85;;
43809;SDS011;29440;48.208;11.162;2022-10-18T03:52:25;4.53;;;2.50;;
43809;SDS011;29440;48.208;11.162;2022-10-18T03:54:50;6.00;;;2.28;;
43809;SDS011;29440;48.208;11.162;2022-10-18T03:57:16;4.57;;;2.13;;
43809;SDS011;29440;48.208;11.162;2022-10-18T03:59:42;6.32;;;2.15;;
43809;SDS011;29440;48.208;11.162;2022-10-18T04:02:07;6.07;;;2.10;;
43809;SDS011;29440;48.208;11.162;2022-10-18T04:04:33;5.65;;;2.28;;
43809;SDS011;29440;48.208;11.162;2022-10-18T04:06:58;4.95;;;2.40;;
43809;SDS011;29440;48.208;11.162;2022-10-18T04:09:24;4.65;;;2.78;;
43809;SDS011;29440;48.208;11.162;2022-10-18T04:11:50;3.30;;;2.17;;
43809;SDS011;29440;48.208;11.162;2022-10-18T04:14:16;4.28;;;2.17;;
43809;SDS011;29440;48.208;11.162;2022-10-18T04:16:41;5.15;;;2.22;;
43809;SDS011;29440;48.208;11.162;2022-10-18T04:19:07;3.92;;;2.10;;
43809;SDS011;29440;48.208;11.162;2022-10-18T04:21:33;5.70;;;2.30;;
43809;SDS011;29440;48.208;11.162;2022-10-18T04:23:58;5.18;;;2.40;;
43809;SDS011;29440;48.208;11.162;2022-10-18T04:26:24;7.70;;;2.55;;
43809;SDS011;29440;48.208;11.162;2022-10-18T04:28:49;6.07;;;2.88;;
43809;SDS011;29440;48.208;11.162;2022-10-18T04:31:15;6.90;;;2.75;;
43809;SDS011;29440;48.208;11.162;2022-10-18T04:33:40;7.22;;;2.90;;
43809;SDS011;29440;48.208;11.162;2022-10-18T04:36:06;5.28;;;2.45;;
43809;SDS011;29440;48.208;11.162;2022-10-18T04:38:32;4.32;;;2.40;;
43809;SDS011;29440;48.208;11.162;2022-10-18T04:40:57;6.15;;;2.67;;
43809;SDS011;29440;48.208;11.162;2022-10-18T04:43:23;7.97;;;2.75;;
43809;SDS011;29440;48.208;11.162;2022-10-18T04:45:48;6.50;;;2.78;;
43809;SDS011;29440;48.208;11.162;2022-10-18T04:48:15;7.53;;;2.70;;
43809;SDS011;29440;48.208;11.162;2022-10-18T04:50:41;6.15;;;2.60;;
43809;SDS011;29440;48.208;11.162;2022-10-18T04:53:07;4.82;;;3.00;;
43809;SDS011;29440;48.208;11.162;2022-10-18T04:55:33;7.60;;;2.65;;
43809;SDS011;29440;48.208;11.162;2022-10-18T04:57:58;4.18;;;2.92;;
43809;SDS011;29440;48.208;11.162;2022-10-18T05:00:24;6.68;;;2.60;;
43809;SDS011;29440;48.208;11.162;2022-10-18T05:02:54;5.50;;;2.55;;
43809;SDS011;29440;48.208;11.162;2022-10-18T05:05:21;4.82;;;3.10;;
43809;SDS011;29440;48.208;11.162;2022-10-18T05:07:47;7.30;;;3.22;;
43809;SDS011;29440;48.208;11.162;2022-10-18T05:10:13;3.85;;;2.38;;
43809;SDS011;29440;48.208;11.162;2022-10-18T05:12:38;5.60;;;3.17;;
43809;SDS011;29440;48.208;11.162;2022-10-18T05:15:04;6.57;;;2.70;;
43809;SDS011;29440;48.208;11.162;2022-10-18T05:17:30;5.70;;;2.92;;
43809;SDS011;29440;48.208;11.162;2022-10-18T05:19:55;4.45;;;2.60;;
43809;SDS011;29440;48.208;11.162;2022-10-18T05:22:21;8.77;;;3.45;;
43809;SDS011;29440;48.208;11.162;2022-10-18T05:24:47;5.82;;;2.95;;
43809;SDS011;29440;48.208;11.162;2022-10-18T05:27:12;7.80;;;2.83;;
43809;SDS011;29440;48.208;11.162;2022-10-18T05:29:38;4.90;;;3.42;;
43809;SDS011;29440;48.208;11.162;2022-10-18T05:32:03;8.68;;;3.47;;
43809;SDS011;29440;48.208;11.162;2022-10-18T05:34:29;4.65;;;3.03;;
43809;SDS011;29440;48.208;11.162;2022-10-18T05:36:56;5.68;;;3.08;;
43809;SDS011;29440;48.208;11.162;2022-10-18T05:39:22;9.55;;;3.53;;
43809;SDS011;29440;48.208;11.162;2022-10-18T05:41:47;7.53;;;3.10;;
43809;SDS011;29440;48.208;11.162;2022-10-18T05:44:13;5.88;;;3.10;;
43809;SDS011;29440;48.208;11.162;2022-10-18T05:46:39;8.63;;;3.33;;
43809;SDS011;29440;48.208;11.162;2022-10-18T05:49:04;6.85;;;3.20;;
43809;SDS011;29440;48.208;11.162;2022-10-18T05:51:30;9.55;;;2.85;;
43809;SDS011;29440;48.208;11.162;2022-10-18T05:53:56;9.75;;;3.40;;
43809;SDS011;29440;48.208;11.162;2022-10-18T05:56:21;3.67;;;2.60;;
43809;SDS011;29440;48.208;11.162;2022-10-18T05:58:50;7.72;;;3.10;;
43809;SDS011;29440;48.208;11.162;2022-10-18T06:01:16;8.35;;;3.25;;
43809;SDS011;29440;48.208;11.162;2022-10-18T06:03:42;12.00;;;2.92;;
43809;SDS011;29440;48.208;11.162;2022-10-18T06:06:09;6.45;;;2.30;;
43809;SDS011;29440;48.208;11.162;2022-10-18T06:08:37;3.97;;;2.63;;
43809;SDS011;29440;48.208;11.162;2022-10-18T06:11:07;5.68;;;2.78;;
43809;SDS011;29440;48.208;11.162;2022-10-18T06:13:38;16.75;;;4.93;;
43809;SDS011;29440;48.208;11.162;2022-10-18T06:16:08;5.38;;;3.00;;
43809;SDS011;29440;48.208;11.162;2022-10-18T06:18:34;5.03;;;2.65;;
43809;SDS011;29440;48.208;11.162;2022-10-18T06:21:00;6.15;;;2.85;;
43809;SDS011;29440;48.208;11.162;2022-10-18T06:23:26;5.35;;;2.65;;
43809;SDS011;29440;48.208;11.162;2022-10-18T06:25:52;5.03;;;2.35;;
43809;SDS011;29440;48.208;11.162;2022-10-18T06:28:18;6.10;;;2.78;;
43809;SDS011;29440;48.208;11.162;2022-10-18T06:30:43;5.68;;;2.13;;
43809;SDS011;29440;48.208;11.162;2022-10-18T06:33:09;6.20;;;2.45;;
43809;SDS011;29440;48.208;11.162;2022-10-18T06:35:38;6.15;;;2.60;;
43809;SDS011;29440;48.208;11.162;2022-10-18T06:38:03;7.68;;;2.38;;
43809;SDS011;29440;48.208;11.162;2022-10-18T06:40:30;5.25;;;2.25;;
43809;SDS011;29440;48.208;11.162;2022-10-18T06:43:02;5.28;;;2.70;;
43809;SDS011;29440;48.208;11.162;2022-10-18T06:45:30;6.13;;;2.95;;
43809;SDS011;29440;48.208;11.162;2022-10-18T06:47:57;8.50;;;2.63;;
43809;SDS011;29440;48.208;11.162;2022-10-18T06:50:23;5.93;;;2.75;;
43809;SDS011;29440;48.208;11.162;2022-10-18T06:52:50;7.45;;;2.60;;
43809;SDS011;29440;48.208;11.162;2022-10-18T06:55:16;3.83;;;2.30;;
43809;SDS011;29440;48.208;11.162;2022-10-18T06:57:49;6.75;;;2.33;;
43809;SDS011;29440;48.208;11.162;2022-10-18T07:00:14;4.45;;;2.42;;
43809;SDS011;29440;48.208;11.162;2022-10-18T07:02:40;10.02;;;2.30;;
43809;SDS011;29440;48.208;11.162;2022-10-18T07:05:06;6.70;;;2.30;;
43809;SDS011;29440;48.208;11.162;2022-10-18T07:07:32;5.15;;;2.28;;
43809;SDS011;29440;48.208;11.162;2022-10-18T07:10:00;3.63;;;1.70;;
43809;SDS011;29440;48.208;11.162;2022-10-18T07:12:26;8.93;;;2.08;;
43809;SDS011;29440;48.208;11.162;2022-10-18T07:14:51;7.75;;;2.08;;
43809;SDS011;29440;48.208;11.162;2022-10-18T07:17:17;5.93;;;2.05;;
43809;SDS011;29440;48.208;11.162;2022-10-18T07:19:49;4.90;;;1.75;;
43809;SDS011;29440;48.208;11.162;2022-10-18T07:22:15;8.70;;;1.63;;
43809;SDS011;29440;48.208;11.162;2022-10-18T07:24:40;3.58;;;1.75;;
43809;SDS011;29440;48.208;11.162;2022-10-18T07:27:06;3.38;;;1.67;;
43809;SDS011;29440;48.208;11.162;2022-10-18T07:29:32;3.40;;;1.48;;
43809;SDS011;29440;48.208;11.162;2022-10-18T07:31:58;2.75;;;1.50;;
43809;SDS011;29440;48.208;11.162;2022-10-18T07:34:23;4.82;;;1.63;;
43809;SDS011;29440;48.208;11.162;2022-10-18T07:36:49;3.78;;;1.67;;
43809;SDS011;29440;48.208;11.162;2022-10-18T07:39:15;6.53;;;1.77;;
43809;SDS011;29440;48.208;11.162;2022-10-18T07:41:40;5.55;;;1.67;;
43809;SDS011;29440;48.208;11.162;2022-10-18T07:44:06;3.45;;;2.13;;
43809;SDS011;29440;48.208;11.162;2022-10-18T07:46:32;5.57;;;2.28;;
43809;SDS011;29440;48.208;11.162;2022-10-18T07:49:00;8.82;;;2.30;;
43809;SDS011;29440;48.208;11.162;2022-10-18T07:51:26;9.75;;;2.25;;
43809;SDS011;29440;48.208;11.162;2022-10-18T07:53:52;4.13;;;1.65;;
43809;SDS011;29440;48.208;11.162;2022-10-18T07:56:19;2.83;;;1.52;;
43809;SDS011;29440;48.208;11.162;2022-10-18T07:58:46;3.92;;;1.52;;
43809;SDS011;29440;48.208;11.162;2022-10-18T08:01:15;8.00;;;1.60;;
43809;SDS011;29440;48.208;11.162;2022-10-18T08:03:41;5.15;;;1.58;;
43809;SDS011;29440;48.208;11.162;2022-10-18T08:06:08;2.72;;;1.63;;
43809;SDS011;29440;48.208;11.162;2022-10-18T08:08:36;2.75;;;1.60;;
43809;SDS011;29440;48.208;11.162;2022-10-18T08:13:59;4.20;;;2.10;;
43809;SDS011;29440;48.208;11.162;2022-10-18T08:16:26;3.75;;;1.95;;
43809;SDS011;29440;48.208;11.162;2022-10-18T08:18:52;4.70;;;1.85;;
43809;SDS011;29440;48.208;11.162;2022-10-18T08:21:19;3.70;;;2.00;;
43809;SDS011;29440;48.208;11.162;2022-10-18T08:23:45;8.55;;;1.90;;
43809;SDS011;29440;48.208;11.162;2022-10-18T08:26:12;7.82;;;2.03;;
43809;SDS011;29440;48.208;11.162;2022-10-18T08:28:40;7.07;;;2.20;;
43809;SDS011;29440;48.208;11.162;2022-10-18T08:31:07;3.80;;;2.30;;
43809;SDS011;29440;48.208;11.162;2022-10-18T08:33:35;7.05;;;2.50;;
43809;SDS011;29440;48.208;11.162;2022-10-18T08:36:02;6.47;;;2.45;;
43809;SDS011;29440;48.208;11.162;2022-10-18T08:38:32;8.07;;;3.03;;
43809;SDS011;29440;48.208;11.162;2022-10-18T08:41:45;5.30;;;2.40;;
43809;SDS011;29440;48.208;11.162;2022-10-18T08:46:32;9.00;;;2.58;;
43809;SDS011;29440;48.208;11.162;2022-10-18T08:49:00;8.00;;;2.30;;
43809;SDS011;29440;48.208;11.162;2022-10-18T08:51:32;6.10;;;2.25;;
43809;SDS011;29440;48.208;11.162;2022-10-18T08:54:11;5.63;;;1.80;;
43809;SDS011;29440;48.208;11.162;2022-10-18T08:59:40;3.88;;;1.92;;
43809;SDS011;29440;48.208;11.162;2022-10-18T09:10:03;4.03;;;2.30;;
43809;SDS011;29440;48.208;11.162;2022-10-18T09:16:09;4.68;;;2.30;;
43809;SDS011;29440;48.208;11.162;2022-10-18T09:23:46;4.60;;;2.45;;
43809;SDS011;29440;48.208;11.162;2022-10-18T09:26:36;5.10;;;2.30;;
43809;SDS011;29440;48.208;11.162;2022-10-18T09:32:01;5.82;;;2.17;;
43809;SDS011;29440;48.208;11.162;2022-10-18T09:34:38;7.10;;;2.60;;
43809;SDS011;29440;48.208;11.162;2022-10-18T09:37:15;6.40;;;2.47;;
43809;SDS011;29440;48.208;11.162;2022-10-18T09:39:43;7.05;;;2.55;;
43809;SDS011;29440;48.208;11.162;2022-10-18T09:42:15;8.23;;;2.53;;
43809;SDS011;29440;48.208;11.162;2022-10-18T09:44:52;5.55;;;2.22;;
43809;SDS011;29440;48.208;11.162;2022-10-18T09:47:33;9.55;;;2.75;;
43809;SDS011;29440;48.208;11.162;2022-10-18T09:52:55;5.43;;;2.58;;
43809;SDS011;29440;48.208;11.162;2022-10-18T09:57:55;7.88;;;2.83;;
43809;SDS011;29440;48.208;11.162;2022-10-18T10:01:07;4.72;;;2.60;;
43809;SDS011;29440;48.208;11.162;2022-10-18T10:03:14;4.88;;;2.80;;
43809;SDS011;29440;48.208;11.162;2022-10-18T10:05:40;4.88;;;2.78;;
43809;SDS011;29440;48.208;11.162;2022-10-18T10:08:06;5.75;;;2.67;;
43809;SDS011;29440;48.208;11.162;2022-10-18T10:10:32;8.77;;;3.38;;
43809;SDS011;29440;48.208;11.162;2022-10-18T10:13:18;5.50;;;2.47;;
43809;SDS011;29440;48.208;11.162;2022-10-18T10:15:59;5.18;;;2.55;;
43809;SDS011;29440;48.208;11.162;2022-10-18T10:18:30;8.50;;;2.15;;
43809;SDS011;29440;48.208;11.162;2022-10-18T10:20:58;4.78;;;1.90;;
43809;SDS011;29440;48.208;11.162;2022-10-18T10:26:17;2.55;;;2.05;;
43809;SDS011;29440;48.208;11.162;2022-10-18T10:28:44;4.68;;;2.50;;
43809;SDS011;29440;48.208;11.162;2022-10-18T10:34:18;5.28;;;2.40;;
43809;SDS011;29440;48.208;11.162;2022-10-18T10:36:48;6.57;;;2.30;;
43809;SDS011;29440;48.208;11.162;2022-10-18T10:39:18;4.63;;;2.45;;
43809;SDS011;29440;48.208;11.162;2022-10-18T10:41:46;5.70;;;2.35;;
43809;SDS011;29440;48.208;11.162;2022-10-18T10:44:15;4.63;;;2.58;;
43809;SDS011;29440;48.208;11.162;2022-10-18T10:46:52;3.45;;;2.55;;
43809;SDS011;29440;48.208;11.162;2022-10-18T10:49:19;7.55;;;2.30;;
43809;SDS011;29440;48.208;11.162;2022-10-18T10:51:59;5.55;;;2.10;;
43809;SDS011;29440;48.208;11.162;2022-10-18T10:54:28;7.45;;;2.15;;
43809;SDS011;29440;48.208;11.162;2022-10-18T10:57:15;4.80;;;2.00;;
43809;SDS011;29440;48.208;11.162;2022-10-18T10:59:51;5.38;;;2.00;;
43809;SDS011;29440;48.208;11.162;2022-10-18T11:05:15;5.57;;;1.80;;
43809;SDS011;29440;48.208;11.162;2022-10-18T11:07:49;4.28;;;1.88;;
43809;SDS011;29440;48.208;11.162;2022-10-18T11:10:20;4.00;;;1.80;;
43809;SDS011;29440;48.208;11.162;2022-10-18T11:12:52;5.95;;;2.00;;
43809;SDS011;29440;48.208;11.162;2022-10-18T11:15:58;6.07;;;1.85;;
43809;SDS011;29440;48.208;11.162;2022-10-18T11:18:33;8.15;;;1.70;;
43809;SDS011;29440;48.208;11.162;2022-10-18T11:21:02;3.65;;;1.80;;
43809;SDS011;29440;48.208;11.162;2022-10-18T11:23:36;4.65;;;1.98;;
43809;SDS011;29440;48.208;11.162;2022-10-18T11:29:08;2.63;;;1.67;;
43809;SDS011;29440;48.208;11.162;2022-10-18T11:40:13;5.03;;;1.70;;
43809;SDS011;29440;48.208;11.162;2022-10-18T11:56:17;3.83;;;2.00;;
43809;SDS011;29440;48.208;11.162;2022-10-18T12:04:20;3.95;;;1.50;;
43809;SDS011;29440;48.208;11.162;2022-10-18T12:06:58;6.60;;;1.88;;
43809;SDS011;29440;48.208;11.162;2022-10-18T12:12:02;4.15;;;1.52;;
43809;SDS011;29440;48.208;11.162;2022-10-18T12:14:37;3.85;;;1.70;;
43809;SDS011;29440;48.208;11.162;2022-10-18T12:17:18;3.67;;;1.40;;
43809;SDS011;29440;48.208;11.162;2022-10-18T12:23:01;5.97;;;1.63;;
43809;SDS011;29440;48.208;11.162;2022-10-18T12:25:32;4.72;;;1.20;;
43809;SDS011;29440;48.208;11.162;2022-10-18T12:31:11;4.38;;;1.17;;
43809;SDS011;29440;48.208;11.162;2022-10-18T12:33:49;8.73;;;1.50;;
43809;SDS011;29440;48.208;11.162;2022-10-18T12:38:46;4.20;;;1.25;;
43809;SDS011;29440;48.208;11.162;2022-10-18T12:41:21;3.83;;;1.48;;
43809;SDS011;29440;48.208;11.162;2022-10-18T12:44:02;4.20;;;1.63;;
43809;SDS011;29440;48.208;11.162;2022-10-18T12:46:42;7.32;;;1.80;;
43809;SDS011;29440;48.208;11.162;2022-10-18T12:49:12;4.80;;;1.63;;
43809;SDS011;29440;48.208;11.162;2022-10-18T12:51:49;2.95;;;1.65;;
43809;SDS011;29440;48.208;11.162;2022-10-18T12:57:24;4.03;;;1.40;;
43809;SDS011;29440;48.208;11.162;2022-10-18T13:05:47;4.47;;;1.50;;
43809;SDS011;29440;48.208;11.162;2022-10-18T13:08:41;5.25;;;1.50;;
43809;SDS011;29440;48.208;11.162;2022-10-18T13:11:13;3.00;;;1.52;;
43809;SDS011;29440;48.208;11.162;2022-10-18T13:14:14;7.25;;;1.60;;
43809;SDS011;29440;48.208;11.162;2022-10-18T13:25:31;4.15;;;1.48;;
43809;SDS011;29440;48.208;11.162;2022-10-18T13:28:04;3.50;;;1.38;;
43809;SDS011;29440;48.208;11.162;2022-10-18T13:36:18;6.20;;;1.48;;
43809;SDS011;29440;48.208;11.162;2022-10-18T13:41:20;9.63;;;3.60;;
43809;SDS011;29440;48.208;11.162;2022-10-18T13:46:24;3.78;;;1.25;;
43809;SDS011;29440;48.208;11.162;2022-10-18T13:48:59;3.42;;;1.30;;
43809;SDS011;29440;48.208;11.162;2022-10-18T14:07:51;4.68;;;1.13;;
43809;SDS011;29440;48.208;11.162;2022-10-18T14:10:34;6.53;;;1.45;;
43809;SDS011;29440;48.208;11.162;2022-10-18T14:13:04;5.32;;;1.25;;
43809;SDS011;29440;48.208;11.162;2022-10-18T14:15:38;21.48;;;2.80;;
43809;SDS011;29440;48.208;11.162;2022-10-18T14:20:43;6.75;;;1.75;;
43809;SDS011;29440;48.208;11.162;2022-10-18T14:23:18;6.45;;;1.40;;
43809;SDS011;29440;48.208;11.162;2022-10-18T14:25:47;6.43;;;1.35;;
43809;SDS011;29440;48.208;11.162;2022-10-18T14:28:14;5.53;;;1.08;;
43809;SDS011;29440;48.208;11.162;2022-10-18T14:33:37;4.15;;;1.20;;
43809;SDS011;29440;48.208;11.162;2022-10-18T14:46:42;2.47;;;1.17;;
43809;SDS011;29440;48.208;11.162;2022-10-18T14:49:15;5.28;;;1.67;;
43809;SDS011;29440;48.208;11.162;2022-10-18T14:51:42;5.70;;;1.50;;
43809;SDS011;29440;48.208;11.162;2022-10-18T14:54:18;2.72;;;1.45;;
43809;SDS011;29440;48.208;11.162;2022-10-18T14:56:47;10.20;;;2.05;;
43809;SDS011;29440;48.208;11.162;2022-10-18T15:02:10;3.38;;;1.63;;
43809;SDS011;29440;48.208;11.162;2022-10-18T15:04:38;5.20;;;1.45;;
43809;SDS011;29440;48.208;11.162;2022-10-18T15:07:12;6.72;;;1.73;;
43809;SDS011;29440;48.208;11.162;2022-10-18T15:09:40;4.35;;;1.48;;
43809;SDS011;29440;48.208;11.162;2022-10-18T15:12:07;4.25;;;1.38;;
43809;SDS011;29440;48.208;11.162;2022-10-18T15:14:38;5.05;;;1.40;;
43809;SDS011;29440;48.208;11.162;2022-10-18T15:17:13;2.97;;;1.45;;
43809;SDS011;29440;48.208;11.162;2022-10-18T15:22:28;7.75;;;2.08;;
43809;SDS011;29440;48.208;11.162;2022-10-18T15:27:40;6.85;;;2.40;;
43809;SDS011;29440;48.208;11.162;2022-10-18T15:32:57;11.27;;;2.70;;
43809;SDS011;29440;48.208;11.162;2022-10-18T15:35:26;7.05;;;3.20;;
43809;SDS011;29440;48.208;11.162;2022-10-18T15:37:53;9.65;;;3.40;;
43809;SDS011;29440;48.208;11.162;2022-10-18T15:42:46;15.70;;;5.10;;
43809;SDS011;29440;48.208;11.162;2022-10-18T15:55:50;9.05;;;4.07;;
43809;SDS011;29440;48.208;11.162;2022-10-18T15:58:26;8.02;;;4.30;;
43809;SDS011;29440;48.208;11.162;2022-10-18T16:00:57;7.78;;;4.90;;
43809;SDS011;29440;48.208;11.162;2022-10-18T16:03:24;7.35;;;4.25;;
43809;SDS011;29440;48.208;11.162;2022-10-18T16:05:57;10.20;;;4.40;;
43809;SDS011;29440;48.208;11.162;2022-10-18T16:08:27;10.45;;;3.75;;
43809;SDS011;29440;48.208;11.162;2022-10-18T16:11:01;7.63;;;3.20;;
43809;SDS011;29440;48.208;11.162;2022-10-18T16:13:26;6.40;;;3.10;;
43809;SDS011;29440;48.208;11.162;2022-10-18T16:15:52;5.80;;;2.38;;
43809;SDS011;29440;48.208;11.162;2022-10-18T16:18:21;7.70;;;2.97;;
43809;SDS011;29440;48.208;11.162;2022-10-18T16:20:49;8.27;;;2.42;;
43809;SDS011;29440;48.208;11.162;2022-10-18T16:25:49;7.60;;;2.50;;
43809;SDS011;29440;48.208;11.162;2022-10-18T16:28:20;7.18;;;3.97;;
43809;SDS011;29440;48.208;11.162;2022-10-18T16:30:52;6.47;;;4.25;;
43809;SDS011;29440;48.208;11.162;2022-10-18T16:33:20;9.30;;;3.70;;
43809;SDS011;29440;48.208;11.162;2022-10-18T16:35:46;6.47;;;4.05;;
43809;SDS011;29440;48.208;11.162;2022-10-18T16:38:18;7.20;;;3.90;;
43809;SDS011;29440;48.208;11.162;2022-10-18T16:40:52;5.57;;;3.22;;
43809;SDS011;29440;48.208;11.162;2022-10-18T16:43:18;4.90;;;3.70;;
43809;SDS011;29440;48.208;11.162;2022-10-18T16:45:44;8.50;;;3.90;;
43809;SDS011;29440;48.208;11.162;2022-10-18T16:48:14;6.68;;;3.50;;
43809;SDS011;29440;48.208;11.162;2022-10-18T16:50:41;6.07;;;2.92;;
43809;SDS011;29440;48.208;11.162;2022-10-18T16:53:07;8.05;;;2.85;;
43809;SDS011;29440;48.208;11.162;2022-10-18T16:55:33;6.05;;;2.60;;
43809;SDS011;29440;48.208;11.162;2022-10-18T16:57:58;6.45;;;2.60;;
43809;SDS011;29440;48.208;11.162;2022-10-18T17:00:24;5.32;;;2.47;;
43809;SDS011;29440;48.208;11.162;2022-10-18T17:02:50;6.53;;;3.03;;
43809;SDS011;29440;48.208;11.162;2022-10-18T17:05:16;4.35;;;2.85;;
43809;SDS011;29440;48.208;11.162;2022-10-18T17:07:42;6.07;;;3.28;;
43809;SDS011;29440;48.208;11.162;2022-10-18T17:12:45;6.93;;;4.00;;
43809;SDS011;29440;48.208;11.162;2022-10-18T17:15:11;6.72;;;3.38;;
43809;SDS011;29440;48.208;11.162;2022-10-18T17:17:37;9.48;;;3.85;;
43809;SDS011;29440;48.208;11.162;2022-10-18T17:20:04;8.50;;;3.47;;
43809;SDS011;29440;48.208;11.162;2022-10-18T17:22:31;5.30;;;3.17;;
43809;SDS011;29440;48.208;11.162;2022-10-18T17:24:57;4.43;;;3.42;;
43809;SDS011;29440;48.208;11.162;2022-10-18T17:27:33;5.82;;;3.10;;
43809;SDS011;29440;48.208;11.162;2022-10-18T17:29:58;7.68;;;3.13;;
43809;SDS011;29440;48.208;11.162;2022-10-18T17:32:24;7.32;;;3.20;;
43809;SDS011;29440;48.208;11.162;2022-10-18T17:34:49;5.85;;;2.60;;
43809;SDS011;29440;48.208;11.162;2022-10-18T17:39:57;5.28;;;3.20;;
43809;SDS011;29440;48.208;11.162;2022-10-18T17:42:22;8.48;;;4.53;;
43809;SDS011;29440;48.208;11.162;2022-10-18T17:44:48;6.97;;;3.45;;
43809;SDS011;29440;48.208;11.162;2022-10-18T17:47:13;8.65;;;4.05;;
43809;SDS011;29440;48.208;11.162;2022-10-18T17:49:45;10.75;;;4.28;;
43809;SDS011;29440;48.208;11.162;2022-10-18T17:52:11;10.45;;;4.72;;
43809;SDS011;29440;48.208;11.162;2022-10-18T17:54:37;8.63;;;4.50;;
43809;SDS011;29440;48.208;11.162;2022-10-18T17:57:03;9.15;;;4.95;;
43809;SDS011;29440;48.208;11.162;2022-10-18T17:59:28;7.03;;;4.10;;
43809;SDS011;29440;48.208;11.162;2022-10-18T18:01:54;10.43;;;6.47;;
43809;SDS011;29440;48.208;11.162;2022-10-18T18:04:20;8.23;;;4.47;;